Allegheny County Airport
KAGC : now visible

Airfield :











YOU CAN JOIN US ON...

 
LOGIN :

Register | Disclaimer

   EN    FR    IT 

 









Legend :    VFR   Marginal VFR   IFR   Intensive IFR   Very Intensive IFR
Visi :
Ceiling :
>= 8 km
>= 3000ft
5 to 8 km
1000 to 3000 ft
1500m to 5 km
500 to 1000 ft
800 to 1500m
200 to 500 ft
< 800m
< 200 ft
Symbols :   Thunderstorms  Fog  Heavy snow  Heavy precipitations  Wind > 20 kt







- Airport Elevation : 1252 ft
- IATA code : AGC


KAGC - Allegheny County

CURRENT METAR :
  • 181953Z VRB06KT 10SM SCT043 30/21 A2996 RMK AO2 SLP139 T03000211

EXPIRED METARs :
  • 181853Z 26008KT 10SM SCT037 30/21 A2997 RMK AO2 SLP142 T03000211
  • 181753Z VRB06KT 10SM FEW030 FEW037 28/22 A2998 RMK AO2 SLP147 T02830217 10283 20228 58001
  • 181653Z VRB04KT 10SM CLR 27/22 A2999 RMK AO2 SLP149 T02720217

TAF KAGC
Valid from the 18 at 18:00 until the 19 at 18:00 UTC


181722Z 1818/1918 VRB05KT P6SM SCT025
FM190900 22006KT P6SM BKN006
FM191400 24011KT P6SM SCT025
KZOB FIR / North America



MET'MAP, your aeronautical weather chart ! - Copyright ORBIFLY December 2007 - Disclaimer

ORBIFLY MET'MAP TEAM :

Programming & Development : Alexandra Zaïnal
Concept & Development : Baudouin d'Aumeries
Co-Development & Prog : Marc-Olivier Méhu
Technical & hardware support : Manuel Goepfert

Contact : metmap@orbifly.com




SOURCES & CREDITS :

   NOAA       Earth
Advisory